createdAt,value
2019-03-08T00:01:17.832Z,54.80
2019-03-08T00:05:23.666Z,55.40
2019-03-08T00:09:29.363Z,55.30
2019-03-08T00:13:35.077Z,55.80
2019-03-08T00:17:40.911Z,56.50
2019-03-08T00:21:48.118Z,56.20
2019-03-08T00:25:53.796Z,56.30
2019-03-08T00:29:59.560Z,55.80
2019-03-08T00:34:05.427Z,55.60
2019-03-08T00:38:11.192Z,56.70
2019-03-08T00:42:17.027Z,56.00
2019-03-08T00:46:22.718Z,56.10
2019-03-08T00:50:28.437Z,55.50
2019-03-08T00:54:36.249Z,55.40
2019-03-08T00:58:41.921Z,55.20
2019-03-08T01:02:47.607Z,56.00
2019-03-08T01:06:53.363Z,55.70
2019-03-08T01:10:59.277Z,55.60
2019-03-08T01:15:09.270Z,55.20
2019-03-08T01:19:14.958Z,55.40
2019-03-08T01:23:20.794Z,55.90
2019-03-08T01:27:26.489Z,55.70
2019-03-08T01:31:32.460Z,56.00
2019-03-08T01:35:38.295Z,56.50
2019-03-08T01:39:43.990Z,56.10
2019-03-08T01:43:49.684Z,55.80
2019-03-08T01:47:57.570Z,56.00
2019-03-08T01:52:03.501Z,55.50
2019-03-08T01:56:10.811Z,56.50
2019-03-08T02:00:20.470Z,56.30
2019-03-08T02:04:27.264Z,56.40
2019-03-08T02:08:34.130Z,56.30
2019-03-08T02:12:39.829Z,56.50
2019-03-08T02:16:45.529Z,57.50
2019-03-08T02:20:52.284Z,59.00
2019-03-08T02:24:58.257Z,61.40
2019-03-08T02:29:03.946Z,62.50
2019-03-08T02:33:09.915Z,63.50
2019-03-08T02:37:15.597Z,65.50
2019-03-08T02:41:21.297Z,68.10
2019-03-08T02:45:27.054Z,68.70
2019-03-08T02:49:32.827Z,68.90
2019-03-08T02:53:38.523Z,69.50
2019-03-08T02:57:44.222Z,69.70
2019-03-08T03:01:49.898Z,69.70
2019-03-08T03:05:55.585Z,69.90
2019-03-08T03:10:02.294Z,69.40
2019-03-08T03:14:08.054Z,69.40
2019-03-08T03:18:13.782Z,68.30
2019-03-08T03:22:19.490Z,68.60
2019-03-08T03:26:25.260Z,66.90
2019-03-08T03:30:31.031Z,67.50
2019-03-08T03:34:36.723Z,68.10
2019-03-08T03:38:42.414Z,68.00
2019-03-08T03:42:48.337Z,67.60
2019-03-08T03:46:54.027Z,67.90
2019-03-08T03:50:59.872Z,68.10
2019-03-08T03:55:14.717Z,68.70
2019-03-08T03:59:20.404Z,69.50
2019-03-08T04:03:26.377Z,69.00
2019-03-08T04:07:32.072Z,70.20
2019-03-08T04:11:37.807Z,69.60
2019-03-08T04:15:43.524Z,69.20
2019-03-08T04:19:49.315Z,70.30
2019-03-08T04:23:55.252Z,68.90
2019-03-08T04:28:01.061Z,71.50
2019-03-08T04:32:06.754Z,71.10
2019-03-08T04:36:12.435Z,72.10
2019-03-08T04:40:18.115Z,73.10
2019-03-08T04:44:23.794Z,73.90
2019-03-08T04:48:29.479Z,75.10
2019-03-08T04:52:35.221Z,75.80
2019-03-08T04:56:40.903Z,75.10
2019-03-08T05:00:46.602Z,75.40
2019-03-08T05:04:52.359Z,76.90
2019-03-08T05:08:58.048Z,76.50
2019-03-08T05:13:03.718Z,77.40
2019-03-08T05:17:10.363Z,77.00
2019-03-08T05:21:16.049Z,76.30
2019-03-08T05:25:21.732Z,76.40
2019-03-08T05:29:27.410Z,74.90
2019-03-08T05:33:33.069Z,74.80
2019-03-08T05:37:39.742Z,74.90
2019-03-08T05:41:45.610Z,75.30
2019-03-08T05:45:51.302Z,74.90
2019-03-08T05:49:57.134Z,75.10
2019-03-08T05:54:02.820Z,75.20
2019-03-08T05:58:08.535Z,74.60
2019-03-08T06:02:14.222Z,74.40
2019-03-08T06:06:19.914Z,73.80
2019-03-08T06:10:31.369Z,72.20
2019-03-08T06:14:37.041Z,73.80
2019-03-08T06:18:42.741Z,73.90
2019-03-08T06:22:48.452Z,73.70
2019-03-08T06:26:54.126Z,74.30
2019-03-08T06:31:00.068Z,74.00
2019-03-08T06:35:07.364Z,74.30
2019-03-08T06:39:13.038Z,73.20
2019-03-08T06:43:18.735Z,72.50
2019-03-08T06:47:24.417Z,72.40
2019-03-08T06:51:30.154Z,72.10
2019-03-08T06:55:35.847Z,72.80
2019-03-08T06:59:43.352Z,71.50
2019-03-08T07:03:49.040Z,71.00
2019-03-08T07:07:54.743Z,72.90
2019-03-08T07:12:00.401Z,73.70
2019-03-08T07:16:12.786Z,73.60
2019-03-08T07:20:31.062Z,71.90
2019-03-08T07:24:38.396Z,69.70
2019-03-08T07:29:00.699Z,69.80
2019-03-08T07:33:08.060Z,70.20
2019-03-08T07:37:30.998Z,70.60
2019-03-08T07:41:41.193Z,72.10
2019-03-08T07:45:48.529Z,68.80
2019-03-08T07:49:55.872Z,66.70
2019-03-08T07:54:03.183Z,63.20
2019-03-08T07:58:13.520Z,59.70
2019-03-08T08:02:20.853Z,61.50
2019-03-08T08:06:28.303Z,62.40
2019-03-08T08:10:38.380Z,64.10
2019-03-08T08:14:48.427Z,65.10
2019-03-08T08:19:04.908Z,63.40
2019-03-08T08:23:15.383Z,62.20
2019-03-08T08:27:22.720Z,61.80
2019-03-08T08:31:44.812Z,60.90
2019-03-08T08:36:07.198Z,62.20
2019-03-08T08:40:15.676Z,61.80
2019-03-08T08:44:23.006Z,62.30
2019-03-08T08:48:28.509Z,60.00
2019-03-08T08:52:37.019Z,61.00
2019-03-08T08:56:53.514Z,60.40
2019-03-08T09:01:04.835Z,59.10
2019-03-08T09:05:18.242Z,57.60
2019-03-08T09:09:34.618Z,56.50
2019-03-08T09:13:44.658Z,53.00
2019-03-08T09:17:52.011Z,49.10
2019-03-08T09:22:03.363Z,48.20
2019-03-08T09:26:26.915Z,44.60
2019-03-08T09:30:37.425Z,43.40
2019-03-08T09:34:44.762Z,45.00
2019-03-08T09:39:01.279Z,46.30
2019-03-08T09:43:19.553Z,44.60
2019-03-08T09:47:44.565Z,43.10
2019-03-08T09:52:00.789Z,44.80
2019-03-08T09:56:17.389Z,45.90
2019-03-08T10:00:31.367Z,43.90
2019-03-08T10:04:54.368Z,43.00
2019-03-08T10:09:01.702Z,41.30
2019-03-08T10:13:13.626Z,39.00
2019-03-08T10:17:36.945Z,39.90
2019-03-08T10:21:44.282Z,40.40
2019-03-08T10:25:55.477Z,39.20
2019-03-08T10:30:05.797Z,39.30
2019-03-08T10:34:22.832Z,39.80
2019-03-08T10:38:36.158Z,37.50
2019-03-08T10:42:50.980Z,38.50
2019-03-08T10:47:10.419Z,38.00
2019-03-08T10:51:22.086Z,35.70
2019-03-08T10:55:41.811Z,33.20
2019-03-08T10:59:52.203Z,33.20
2019-03-08T11:04:15.330Z,34.70
2019-03-08T11:08:37.933Z,33.40
2019-03-08T11:12:54.353Z,32.10
2019-03-08T11:17:07.406Z,32.00
2019-03-08T11:21:20.540Z,29.50
2019-03-08T11:25:43.795Z,28.10
2019-03-08T11:30:07.352Z,25.60
2019-03-08T11:34:17.514Z,24.90
2019-03-08T11:38:24.891Z,24.50
2019-03-08T11:42:40.892Z,22.60
2019-03-08T11:47:00.223Z,24.90
2019-03-08T11:51:24.230Z,25.10
2019-03-08T11:55:41.589Z,25.10
2019-03-08T11:59:48.918Z,25.80
2019-03-08T12:04:12.016Z,24.50
2019-03-08T12:08:24.886Z,26.10
2019-03-08T12:12:46.486Z,27.80
2019-03-08T12:17:09.713Z,27.00
2019-03-08T12:21:15.215Z,28.50
2019-03-08T12:25:22.920Z,27.80
2019-03-08T12:29:48.027Z,26.80
2019-03-08T12:33:58.354Z,27.50
2019-03-08T12:38:08.092Z,27.40
2019-03-08T12:42:18.191Z,27.10
2019-03-08T12:46:30.273Z,26.30
2019-03-08T12:50:40.549Z,26.30
2019-03-08T12:55:04.164Z,27.20
2019-03-08T12:59:11.497Z,26.90
2019-03-08T13:03:35.164Z,27.60
2019-03-08T13:07:54.245Z,29.20
2019-03-08T13:12:00.046Z,29.50
2019-03-08T13:16:05.971Z,31.00
2019-03-08T13:20:17.823Z,31.80
2019-03-08T13:24:23.506Z,32.10
2019-03-08T13:28:29.210Z,32.40
2019-03-08T13:32:34.904Z,33.40
2019-03-08T13:36:40.609Z,30.90
2019-03-08T13:40:46.304Z,31.20
2019-03-08T13:44:51.981Z,31.20
2019-03-08T13:48:57.739Z,30.90
2019-03-08T13:53:03.612Z,29.40
2019-03-08T13:57:09.312Z,27.00
2019-03-08T14:01:16.960Z,25.40
2019-03-08T14:05:22.735Z,26.50
2019-03-08T14:09:28.410Z,27.10
2019-03-08T14:13:34.109Z,24.50
2019-03-08T14:17:39.811Z,24.80
2019-03-08T14:21:45.539Z,26.20
2019-03-08T14:25:51.250Z,31.70
2019-03-08T14:29:59.234Z,34.20
2019-03-08T14:34:04.559Z,35.30
2019-03-08T14:38:10.260Z,37.40
2019-03-08T14:42:17.669Z,39.10
2019-03-08T14:46:29.045Z,39.30
2019-03-08T14:50:35.516Z,38.10
2019-03-08T14:54:45.999Z,37.90
2019-03-08T14:58:49.510Z,34.80
2019-03-08T15:02:55.219Z,33.10
2019-03-08T15:07:01.284Z,33.00
2019-03-08T15:11:08.344Z,33.40
2019-03-08T15:15:16.855Z,34.00
2019-03-08T15:19:22.557Z,33.60
2019-03-08T15:23:28.320Z,33.10
2019-03-08T15:27:34.569Z,33.70
2019-03-08T15:32:16.834Z,34.30
2019-03-08T15:36:23.549Z,33.80
2019-03-08T15:40:33.199Z,33.60
2019-03-08T15:44:54.534Z,33.70
2019-03-08T15:49:00.403Z,34.50
2019-03-08T15:57:31.200Z,33.50
2019-03-08T16:01:36.961Z,35.50
2019-03-08T16:05:42.663Z,34.80
2019-03-08T16:09:48.644Z,34.20
2019-03-08T16:13:54.409Z,34.40
2019-03-08T16:18:00.231Z,35.30
2019-03-08T16:22:06.065Z,35.60
2019-03-08T16:30:47.755Z,35.10
2019-03-08T16:34:54.203Z,35.20
2019-03-08T16:39:03.925Z,35.80
2019-03-08T16:43:15.135Z,36.40
2019-03-08T16:47:42.596Z,36.50
2019-03-08T16:52:03.168Z,36.50
2019-03-08T16:56:16.233Z,35.80
2019-03-08T17:00:35.598Z,36.30
2019-03-08T17:04:41.075Z,36.80
2019-03-08T17:08:57.480Z,36.90
2019-03-08T17:13:03.057Z,37.20
2019-03-08T17:17:10.492Z,36.80
2019-03-08T17:21:17.835Z,36.90
2019-03-08T17:25:25.166Z,37.00
2019-03-08T17:29:35.157Z,37.30
2019-03-08T17:33:42.495Z,37.20
2019-03-08T17:37:49.816Z,37.50
2019-03-08T17:41:57.152Z,37.50
2019-03-08T17:46:10.879Z,37.80
2019-03-08T17:50:16.496Z,38.70
2019-03-08T17:54:42.007Z,39.60
2019-03-08T17:58:49.348Z,39.90
2019-03-08T18:03:12.543Z,41.80
2019-03-08T18:07:34.989Z,42.30
2019-03-08T18:11:52.205Z,42.00
2019-03-08T18:16:02.578Z,41.20
2019-03-08T18:20:16.757Z,44.40
2019-03-08T18:24:30.194Z,44.40
2019-03-08T18:28:42.985Z,45.50
2019-03-08T18:33:18.876Z,45.10
2019-03-08T18:37:36.229Z,46.60
2019-03-08T18:41:46.282Z,45.20
2019-03-08T18:46:02.188Z,47.00
2019-03-08T18:50:09.051Z,47.90
2019-03-08T18:54:32.023Z,46.40
2019-03-08T18:58:42.044Z,49.00
2019-03-08T19:03:05.223Z,44.60
2019-03-08T19:07:10.716Z,43.70
2019-03-08T19:11:18.198Z,44.70
2019-03-08T19:15:25.537Z,44.20
2019-03-08T19:19:32.943Z,41.40
2019-03-08T19:23:46.517Z,42.00
2019-03-08T19:27:54.047Z,41.60
2019-03-08T19:32:16.036Z,41.80
2019-03-08T19:36:29.376Z,43.80
2019-03-08T19:40:34.852Z,46.30
2019-03-08T19:44:46.208Z,47.80
2019-03-08T19:49:10.807Z,45.60
2019-03-08T19:53:23.994Z,49.00
2019-03-08T19:58:17.030Z,48.00
2019-03-08T20:02:42.297Z,46.50
2019-03-08T20:06:48.832Z,47.90
2019-03-08T20:11:09.461Z,44.70
2019-03-08T20:15:20.040Z,46.30
2019-03-08T20:19:27.451Z,44.40
2019-03-08T20:28:34.438Z,42.80
2019-03-08T20:32:44.307Z,43.00
2019-03-08T20:37:16.979Z,43.30
2019-03-08T20:41:24.389Z,43.00
2019-03-08T20:45:41.517Z,43.30
2019-03-08T20:49:47.271Z,43.90
2019-03-08T20:53:52.976Z,44.10
2019-03-08T20:58:16.737Z,44.60
2019-03-08T21:02:22.640Z,45.00
2019-03-08T21:06:28.448Z,45.30
2019-03-08T21:10:34.149Z,45.30
2019-03-08T21:14:39.914Z,45.20
2019-03-08T21:19:02.930Z,45.60
2019-03-08T21:23:08.590Z,45.30
2019-03-08T21:27:14.342Z,45.60
2019-03-08T21:31:20.114Z,45.80
2019-03-08T21:35:25.789Z,45.70
2019-03-08T21:39:31.487Z,45.10
2019-03-08T21:43:37.205Z,44.60
2019-03-08T21:47:43.941Z,44.60
2019-03-08T21:51:49.902Z,44.10
2019-03-08T21:55:55.619Z,43.80
2019-03-08T22:00:01.315Z,43.70
2019-03-08T22:04:19.322Z,43.50
2019-03-08T22:08:25.015Z,43.70
2019-03-08T22:12:30.730Z,43.50
2019-03-08T22:16:36.454Z,44.00
2019-03-08T22:20:42.202Z,44.10
2019-03-08T22:24:47.895Z,44.10
2019-03-08T22:28:53.580Z,44.50
2019-03-08T22:32:59.289Z,45.10
2019-03-08T22:37:06.164Z,45.40
2019-03-08T22:41:11.886Z,45.60
2019-03-08T22:45:17.633Z,46.20
2019-03-08T22:49:23.325Z,47.30
2019-03-08T22:53:29.023Z,46.90
2019-03-08T22:57:35.783Z,47.80
2019-03-08T23:01:43.378Z,48.40
2019-03-08T23:05:49.141Z,48.60
2019-03-08T23:09:54.914Z,48.90
2019-03-08T23:14:00.606Z,49.10
2019-03-08T23:18:06.468Z,49.40
2019-03-08T23:22:12.165Z,49.00
2019-03-08T23:26:17.842Z,48.80
2019-03-08T23:30:25.200Z,48.70
2019-03-08T23:34:30.890Z,49.80
2019-03-08T23:38:36.587Z,50.10
2019-03-08T23:42:42.354Z,50.40
2019-03-08T23:46:48.031Z,50.60
2019-03-08T23:50:54.007Z,51.50
2019-03-08T23:54:59.702Z,51.80
2019-03-08T23:59:05.537Z,51.20
